createdAt,value
2023-07-25T00:01:33.895Z,84.90
2023-07-25T00:04:01.437Z,85.00
2023-07-25T00:06:30.282Z,85.20
2023-07-25T00:08:57.531Z,85.40
2023-07-25T00:11:25.088Z,85.70
2023-07-25T00:13:52.352Z,86.00
2023-07-25T00:16:19.818Z,86.30
2023-07-25T00:18:47.063Z,86.60
2023-07-25T00:21:14.612Z,87.00
2023-07-25T00:23:41.877Z,87.20
2023-07-25T00:26:09.355Z,87.30
2023-07-25T00:28:36.647Z,87.80
2023-07-25T00:31:08.555Z,88.20
2023-07-25T00:33:36.193Z,88.80
2023-07-25T00:36:03.856Z,89.10
2023-07-25T00:38:31.035Z,89.40
2023-07-25T00:40:58.701Z,90.00
2023-07-25T00:43:25.849Z,90.20
2023-07-25T00:45:53.387Z,90.40
2023-07-25T00:48:20.782Z,90.80
2023-07-25T00:50:48.325Z,91.00
2023-07-25T00:53:16.799Z,91.20
2023-07-25T00:55:44.590Z,91.50
2023-07-25T00:58:12.507Z,92.00
2023-07-25T01:00:40.546Z,92.50
2023-07-25T01:03:08.171Z,92.70
2023-07-25T01:05:41.082Z,93.00
2023-07-25T01:08:08.784Z,93.30
2023-07-25T01:10:39.856Z,93.50
2023-07-25T01:13:07.818Z,93.80
2023-07-25T01:15:37.314Z,93.90
2023-07-25T01:18:06.173Z,94.20
2023-07-25T01:20:36.379Z,94.50
2023-07-25T01:23:11.289Z,95.00
2023-07-25T01:25:38.845Z,95.60
2023-07-25T01:28:06.282Z,95.70
2023-07-25T01:30:33.877Z,96.40
2023-07-25T01:33:01.244Z,96.90
2023-07-25T01:35:28.816Z,97.30
2023-07-25T01:37:56.520Z,97.60
2023-07-25T01:40:24.135Z,97.70
2023-07-25T01:42:51.599Z,98.50
2023-07-25T01:45:19.400Z,98.80
2023-07-25T01:47:46.667Z,99.50
2023-07-25T01:50:14.397Z,99.90
2023-07-25T01:52:41.589Z,99.90
2023-07-25T01:55:09.849Z,99.90
2023-07-25T01:57:37.327Z,99.90
2023-07-25T02:00:05.362Z,99.90
2023-07-25T02:02:40.467Z,99.90
2023-07-25T02:05:08.224Z,99.90
2023-07-25T02:07:35.949Z,99.90
2023-07-25T02:10:03.813Z,99.90
2023-07-25T02:12:31.883Z,99.90
2023-07-25T02:14:59.410Z,99.90
2023-07-25T02:17:26.725Z,99.90
2023-07-25T02:19:54.530Z,99.90
2023-07-25T02:22:21.744Z,99.90
2023-07-25T02:24:50.276Z,99.90
2023-07-25T02:27:17.881Z,99.90
2023-07-25T02:29:45.638Z,99.90
2023-07-25T02:32:12.778Z,99.90
2023-07-25T02:34:40.360Z,99.90
2023-07-25T02:37:07.711Z,99.90
2023-07-25T02:39:35.771Z,99.90
2023-07-25T02:42:02.972Z,99.90
2023-07-25T02:44:30.444Z,99.90
2023-07-25T02:46:58.024Z,99.90
2023-07-25T02:49:25.492Z,99.90
2023-07-25T02:51:53.043Z,99.90
2023-07-25T02:54:20.663Z,99.90
2023-07-25T02:56:47.881Z,99.90
2023-07-25T02:59:15.851Z,99.90
2023-07-25T03:01:43.089Z,99.90
2023-07-25T03:04:10.702Z,99.90
2023-07-25T03:06:37.944Z,99.90
2023-07-25T03:09:05.479Z,99.90
2023-07-25T03:11:32.884Z,99.90
2023-07-25T03:14:00.768Z,99.90
2023-07-25T03:16:28.107Z,99.90
2023-07-25T03:18:55.620Z,99.90
2023-07-25T03:21:23.028Z,99.90
2023-07-25T03:23:51.508Z,99.90
2023-07-25T03:26:18.986Z,99.90
2023-07-25T03:28:46.774Z,99.90
2023-07-25T03:31:14.175Z,99.90
2023-07-25T03:33:42.332Z,99.90
2023-07-25T03:36:09.841Z,99.90
2023-07-25T03:38:37.278Z,99.90
2023-07-25T03:41:04.597Z,99.90
2023-07-25T03:43:32.096Z,99.90
2023-07-25T03:45:59.464Z,99.90
2023-07-25T03:48:27.069Z,99.90
2023-07-25T03:50:54.446Z,99.90
2023-07-25T03:53:22.317Z,99.90
2023-07-25T03:55:49.457Z,99.90
2023-07-25T03:58:17.221Z,99.90
2023-07-25T04:00:44.352Z,99.90
2023-07-25T04:03:15.435Z,99.90
2023-07-25T04:05:43.350Z,99.90
2023-07-25T04:08:10.848Z,99.90
2023-07-25T04:10:38.066Z,99.90
2023-07-25T04:13:05.757Z,99.90
2023-07-25T04:15:33.111Z,99.90
2023-07-25T04:18:00.571Z,99.90
2023-07-25T04:20:28.346Z,99.90
2023-07-25T04:22:58.111Z,99.90
2023-07-25T04:25:27.461Z,99.90
2023-07-25T04:27:54.910Z,99.90
2023-07-25T04:30:22.274Z,99.90
2023-07-25T04:32:50.070Z,99.90
2023-07-25T04:35:17.384Z,99.90
2023-07-25T04:37:45.345Z,99.90
2023-07-25T04:40:13.367Z,99.90
2023-07-25T04:42:41.315Z,99.90
2023-07-25T04:45:09.072Z,99.90
2023-07-25T04:47:36.820Z,99.90
2023-07-25T04:50:04.616Z,99.90
2023-07-25T04:52:32.146Z,99.90
2023-07-25T04:55:00.420Z,99.90
2023-07-25T04:57:28.056Z,99.90
2023-07-25T04:59:55.479Z,99.90
2023-07-25T05:02:24.061Z,99.90
2023-07-25T05:04:51.353Z,99.90
2023-07-25T05:07:19.029Z,99.90
2023-07-25T05:09:46.368Z,99.90
2023-07-25T05:12:14.944Z,99.90
2023-07-25T05:14:42.326Z,99.90
2023-07-25T05:17:09.810Z,99.90
2023-07-25T05:19:37.080Z,99.90
2023-07-25T05:22:08.316Z,99.90
2023-07-25T05:24:35.851Z,99.90
2023-07-25T05:27:03.412Z,99.90
2023-07-25T05:29:34.618Z,99.90
2023-07-25T05:32:02.218Z,99.90
2023-07-25T05:34:29.444Z,99.90
2023-07-25T05:36:57.067Z,99.90
2023-07-25T05:39:24.209Z,99.90
2023-07-25T05:41:51.834Z,99.90
2023-07-25T05:44:18.995Z,99.90
2023-07-25T05:46:46.914Z,99.90
2023-07-25T05:49:14.129Z,99.90
2023-07-25T05:51:41.638Z,99.90
2023-07-25T05:54:09.348Z,99.90
2023-07-25T05:56:36.838Z,99.90
2023-07-25T05:59:04.045Z,99.90
2023-07-25T06:01:32.717Z,99.90
2023-07-25T06:04:00.207Z,99.90
2023-07-25T06:06:28.565Z,99.90
2023-07-25T06:08:55.759Z,99.90
2023-07-25T06:11:24.938Z,99.90
2023-07-25T06:13:54.066Z,99.90
2023-07-25T06:16:21.732Z,99.90
2023-07-25T06:18:49.264Z,99.90
2023-07-25T06:21:16.855Z,99.90
2023-07-25T06:23:44.277Z,99.90
2023-07-25T06:26:13.238Z,99.90
2023-07-25T06:28:41.012Z,99.90
2023-07-25T06:31:09.007Z,99.90
2023-07-25T06:33:36.184Z,99.90
2023-07-25T06:36:04.274Z,99.90
2023-07-25T06:38:31.432Z,99.90
2023-07-25T06:40:59.256Z,99.90
2023-07-25T06:43:26.409Z,99.90
2023-07-25T06:45:54.792Z,99.90
2023-07-25T06:48:22.190Z,99.90
2023-07-25T06:50:49.915Z,99.90
2023-07-25T06:53:17.207Z,99.90
2023-07-25T06:55:45.798Z,99.90
2023-07-25T06:58:14.653Z,99.90
2023-07-25T07:00:42.593Z,99.90
2023-07-25T07:03:09.957Z,99.90
2023-07-25T07:05:37.975Z,99.90
2023-07-25T07:08:05.791Z,99.90
2023-07-25T07:10:35.045Z,99.90
2023-07-25T07:13:02.284Z,99.90
2023-07-25T07:15:29.713Z,99.90
2023-07-25T07:17:57.092Z,99.90
2023-07-25T07:20:24.554Z,99.90
2023-07-25T07:22:52.110Z,99.10
2023-07-25T07:25:19.546Z,98.50
2023-07-25T07:27:46.867Z,98.40
2023-07-25T07:30:14.439Z,98.10
2023-07-25T07:32:42.221Z,97.70
2023-07-25T07:35:09.827Z,97.90
2023-07-25T07:37:38.604Z,97.60
2023-07-25T07:40:07.035Z,97.40
2023-07-25T07:42:34.227Z,96.90
2023-07-25T07:45:01.730Z,96.70
2023-07-25T07:47:29.335Z,96.70
2023-07-25T07:49:56.947Z,96.50
2023-07-25T07:52:33.155Z,96.40
2023-07-25T07:55:12.141Z,96.20
2023-07-25T07:57:47.163Z,96.30
2023-07-25T08:00:16.842Z,95.30
2023-07-25T08:02:46.502Z,95.20
2023-07-25T08:05:18.085Z,95.00
2023-07-25T08:07:45.541Z,95.30
2023-07-25T08:10:13.171Z,94.60
2023-07-25T08:12:41.855Z,94.20
2023-07-25T08:15:09.740Z,94.00
2023-07-25T08:17:37.536Z,94.10
2023-07-25T08:20:05.740Z,94.00
2023-07-25T08:22:33.053Z,93.50
2023-07-25T08:25:00.933Z,93.10
2023-07-25T08:27:28.476Z,92.50
2023-07-25T08:29:56.541Z,92.60
2023-07-25T08:32:26.115Z,92.50
2023-07-25T08:34:53.666Z,92.10
2023-07-25T08:37:26.287Z,92.00
2023-07-25T08:39:53.806Z,91.50
2023-07-25T08:42:23.874Z,91.20
2023-07-25T08:44:53.505Z,90.80
2023-07-25T08:47:29.775Z,90.60
2023-07-25T08:49:59.187Z,88.90
2023-07-25T08:52:29.959Z,87.10
2023-07-25T08:54:58.061Z,85.90
2023-07-25T08:57:27.593Z,86.80
2023-07-25T08:59:55.863Z,86.20
2023-07-25T09:02:27.832Z,86.30
2023-07-25T09:04:55.751Z,85.30
2023-07-25T09:07:23.013Z,85.20
2023-07-25T09:12:43.818Z,84.10
2023-07-25T09:15:11.281Z,83.20
2023-07-25T09:17:38.602Z,82.40
2023-07-25T09:20:08.214Z,82.40
2023-07-25T09:22:35.648Z,81.40
2023-07-25T09:25:09.404Z,80.40
2023-07-25T09:27:36.946Z,80.90
2023-07-25T09:30:13.050Z,81.70
2023-07-25T09:32:45.390Z,81.80
2023-07-25T09:35:13.234Z,81.40
2023-07-25T09:37:40.515Z,79.60
2023-07-25T09:40:12.676Z,79.10
2023-07-25T09:42:43.731Z,78.60
2023-07-25T09:45:12.856Z,78.80
2023-07-25T09:47:40.209Z,79.80
2023-07-25T09:50:08.581Z,76.60
2023-07-25T09:52:43.487Z,76.00
2023-07-25T09:55:11.264Z,74.70
2023-07-25T09:57:40.364Z,70.60
2023-07-25T10:00:08.755Z,70.50
2023-07-25T10:02:37.511Z,70.10
2023-07-25T10:05:07.492Z,68.90
2023-07-25T10:07:35.743Z,69.80
2023-07-25T10:10:05.956Z,69.20
2023-07-25T10:12:33.328Z,67.20
2023-07-25T10:15:00.891Z,65.40
2023-07-25T10:17:28.358Z,66.50
2023-07-25T10:19:56.785Z,64.50
2023-07-25T10:22:38.808Z,64.50
2023-07-25T10:25:11.374Z,64.80
2023-07-25T10:27:38.914Z,63.70
2023-07-25T10:30:25.735Z,61.80
2023-07-25T10:32:59.454Z,61.60
2023-07-25T10:35:55.724Z,62.30
2023-07-25T10:38:39.019Z,62.40
2023-07-25T10:41:17.133Z,58.80
2023-07-25T10:43:48.719Z,59.50
2023-07-25T10:46:35.863Z,59.10
2023-07-25T10:49:14.742Z,59.50
2023-07-25T10:51:55.217Z,58.40
2023-07-25T10:54:25.861Z,56.60
2023-07-25T10:57:14.730Z,57.10
2023-07-25T11:00:01.897Z,57.00
2023-07-25T11:02:33.307Z,57.20
2023-07-25T11:05:16.036Z,57.30
2023-07-25T11:07:46.412Z,58.00
2023-07-25T11:10:39.971Z,59.50
2023-07-25T11:13:09.333Z,60.40
2023-07-25T11:15:47.316Z,61.20
2023-07-25T11:18:15.433Z,61.60
2023-07-25T11:20:42.769Z,62.10
2023-07-25T11:23:15.583Z,62.70
2023-07-25T11:25:52.837Z,62.80
2023-07-25T11:28:22.437Z,63.50
2023-07-25T11:30:49.836Z,63.70
2023-07-25T11:33:17.734Z,63.50
2023-07-25T11:35:45.484Z,63.30
2023-07-25T11:38:13.306Z,63.20
2023-07-25T11:40:42.225Z,63.20
2023-07-25T11:43:14.074Z,62.60
2023-07-25T11:45:41.382Z,61.30
2023-07-25T11:48:27.344Z,60.50
2023-07-25T11:50:55.457Z,60.00
2023-07-25T11:53:41.374Z,59.60
2023-07-25T11:56:10.165Z,61.00
2023-07-25T11:58:37.793Z,61.70
2023-07-25T12:01:09.959Z,59.60
2023-07-25T12:03:46.246Z,59.30
2023-07-25T12:06:13.978Z,59.20
2023-07-25T12:08:43.714Z,58.80
2023-07-25T12:11:14.461Z,58.80
2023-07-25T12:13:50.191Z,58.90
2023-07-25T12:16:38.515Z,58.90
2023-07-25T12:19:11.313Z,59.60
2023-07-25T12:21:42.892Z,60.00
2023-07-25T12:24:17.624Z,60.30
2023-07-25T12:26:50.572Z,60.80
2023-07-25T12:29:22.504Z,61.20
2023-07-25T12:31:50.219Z,61.10
2023-07-25T12:34:22.566Z,61.70
2023-07-25T12:36:51.616Z,61.80
2023-07-25T12:39:19.383Z,61.60
2023-07-25T12:41:47.629Z,61.30
2023-07-25T12:44:15.023Z,61.30
2023-07-25T12:46:42.708Z,61.30
2023-07-25T12:49:10.992Z,60.90
2023-07-25T12:51:38.548Z,61.20
2023-07-25T12:54:07.685Z,61.40
2023-07-25T12:56:35.649Z,61.80
2023-07-25T12:59:03.144Z,61.80
2023-07-25T13:01:31.192Z,61.60
2023-07-25T13:04:02.214Z,61.40
2023-07-25T13:06:29.976Z,61.30
2023-07-25T13:08:57.231Z,60.90
2023-07-25T13:11:24.992Z,60.50
2023-07-25T13:13:52.814Z,60.20
2023-07-25T13:16:20.450Z,60.40
2023-07-25T13:18:48.233Z,58.50
2023-07-25T13:21:15.909Z,56.70
2023-07-25T13:23:43.269Z,57.00
2023-07-25T13:26:11.493Z,57.10
2023-07-25T13:28:39.010Z,56.90
2023-07-25T13:31:06.648Z,56.90
2023-07-25T13:33:34.134Z,56.70
2023-07-25T13:36:02.587Z,55.70
2023-07-25T13:38:30.192Z,55.60
2023-07-25T13:40:57.746Z,55.90
2023-07-25T13:43:26.109Z,56.60
2023-07-25T13:45:53.727Z,56.90
2023-07-25T13:48:22.155Z,56.70
2023-07-25T13:50:54.352Z,56.80
2023-07-25T13:53:23.952Z,56.60
2023-07-25T13:55:52.342Z,56.10
2023-07-25T14:01:05.402Z,56.00
2023-07-25T14:03:32.708Z,55.90
2023-07-25T14:06:00.347Z,56.10
2023-07-25T14:08:27.611Z,56.50
2023-07-25T14:10:55.761Z,57.10
2023-07-25T14:13:23.861Z,57.00
2023-07-25T14:15:52.269Z,57.10
2023-07-25T14:18:19.712Z,57.20
2023-07-25T14:20:48.831Z,57.50
2023-07-25T14:23:16.176Z,57.60
2023-07-25T14:25:43.860Z,57.10
2023-07-25T14:28:11.181Z,57.50
2023-07-25T14:30:38.756Z,57.30
2023-07-25T14:33:08.618Z,57.20
2023-07-25T14:35:36.341Z,57.00
2023-07-25T14:38:05.702Z,56.70
2023-07-25T14:40:35.815Z,57.10
2023-07-25T14:43:03.072Z,56.80
2023-07-25T14:45:31.438Z,56.80
2023-07-25T14:47:59.677Z,56.50
2023-07-25T14:50:27.876Z,56.10
2023-07-25T14:52:55.165Z,56.00
2023-07-25T14:55:23.062Z,55.70
2023-07-25T14:57:50.345Z,55.80
2023-07-25T15:00:18.197Z,56.40
2023-07-25T15:02:45.714Z,57.20
2023-07-25T15:05:13.665Z,57.00
2023-07-25T15:07:40.972Z,57.10
2023-07-25T15:10:09.040Z,57.20
2023-07-25T15:12:36.542Z,57.90
2023-07-25T15:15:05.720Z,57.30
2023-07-25T15:17:33.143Z,56.30
2023-07-25T15:20:05.571Z,55.70
2023-07-25T15:22:33.220Z,55.30
2023-07-25T15:25:00.895Z,55.00
2023-07-25T15:27:29.446Z,54.80
2023-07-25T15:29:57.075Z,55.00
